Time;durP1;ratioP1;P1;durP2;ratioP2;P2;SDS_P1;SDS_P2;PMS_P1;PMS_P2;Temp;Humidity;BMP_temperature;BMP_pressure;BME280_temperature;BME280_humidity;BME280_pressure;Samples;Min_cycle;Max_cycle;Signal;HPM_P1;HPM_P2
2021/04/17 00:00:12;;;;;;;34.70;20.80;;;;;;;6.80;84.60;100552.70;105444;1108;79330;-59
2021/04/17 00:02:37;;;;;;;39.00;22.20;;;;;;;6.77;84.65;100553.03;105531;1101;79933;-59
2021/04/17 00:04:42;;;;;;;36.00;21.70;;;;;;;6.68;84.80;100553.98;105491;1107;77768;-58
2021/04/17 00:06:48;;;;;;;30.10;20.50;;;;;;;6.65;85.09;100544.41;105429;1108;78597;-63
2021/04/17 00:08:53;;;;;;;32.20;21.00;;;;;;;6.64;84.94;100549.95;105416;1108;77747;-63
2021/04/17 00:11:02;;;;;;;40.20;23.90;;;;;;;6.58;84.99;100545.22;105460;1108;78282;-63
2021/04/17 00:13:08;;;;;;;34.60;21.40;;;;;;;6.62;84.77;100541.23;105489;1108;78780;-59
2021/04/17 00:15:14;;;;;;;57.70;32.40;;;;;;;6.58;85.04;100548.75;105456;1108;78795;-59
2021/04/17 00:17:21;;;;;;;38.50;26.00;;;;;;;6.60;84.90;100545.89;105464;1108;78049;-59
2021/04/17 00:19:26;;;;;;;24.50;20.40;;;;;;;6.52;84.70;100544.86;105439;1108;77582;-58
2021/04/17 00:21:32;;;;;;;17.10;13.50;;;;;;;6.46;84.99;100545.50;105429;1108;76958;-58
2021/04/17 00:23:40;;;;;;;15.10;12.80;;;;;;;6.49;84.87;100550.55;105482;1101;77681;-62
2021/04/17 00:25:45;;;;;;;16.30;14.00;;;;;;;6.52;85.05;100544.86;105502;1101;76880;-63
2021/04/17 00:27:50;;;;;;;17.80;14.20;;;;;;;6.49;84.87;100547.86;105483;1108;77594;-63
2021/04/17 00:29:59;;;;;;;17.90;13.20;;;;;;;6.51;84.94;100545.00;105454;1108;78450;-62
2021/04/17 00:32:09;;;;;;;14.00;12.30;;;;;;;6.53;84.83;100546.55;105437;1108;78564;-62
2021/04/17 00:34:17;;;;;;;15.10;11.50;;;;;;;6.49;84.72;100545.17;105455;1108;78314;-63
2021/04/17 00:36:25;;;;;;;14.50;12.00;;;;;;;6.50;84.70;100540.66;105470;1108;78099;-63
2021/04/17 00:38:30;;;;;;;13.10;11.40;;;;;;;6.55;85.10;100543.70;105494;1108;78325;-63
2021/04/17 00:40:38;;;;;;;14.30;11.80;;;;;;;6.54;85.09;100545.53;105445;1108;78265;-62
2021/04/17 00:42:43;;;;;;;15.80;11.70;;;;;;;6.50;84.86;100546.03;105453;1107;77640;-62
2021/04/17 00:44:48;;;;;;;12.40;10.40;;;;;;;6.56;84.70;100541.86;105483;1108;77936;-63
2021/04/17 00:46:53;;;;;;;14.50;11.00;;;;;;;6.50;84.60;100543.34;104781;1110;77437;-60
2021/04/17 00:48:58;;;;;;;13.10;10.40;;;;;;;6.45;84.86;100543.83;105426;1108;77355;-59
2021/04/17 00:51:03;;;;;;;12.90;11.20;;;;;;;6.44;84.78;100543.97;105411;1108;78085;-60
2021/04/17 00:53:12;;;;;;;11.80;10.50;;;;;;;6.42;84.83;100541.47;105462;1107;78012;-66
2021/04/17 00:55:17;;;;;;;12.80;10.60;;;;;;;6.38;84.77;100537.40;105475;1108;77744;-65
2021/04/17 00:57:25;;;;;;;12.50;10.40;;;;;;;6.38;84.75;100540.09;105467;1108;78102;-59
2021/04/17 00:59:33;;;;;;;11.60;10.00;;;;;;;6.48;84.71;100530.06;105469;1107;77431;-59
2021/04/17 01:01:42;;;;;;;11.20;9.50;;;;;;;6.46;84.78;100534.76;105453;1108;78595;-61
2021/04/17 01:03:56;;;;;;;13.20;9.90;;;;;;;6.38;84.80;100532.03;105441;1108;78414;-60
2021/04/17 01:06:13;;;;;;;16.90;11.60;;;;;;;6.38;85.16;100528.50;105439;1108;78119;-59
2021/04/17 01:08:31;;;;;;;13.30;10.40;;;;;;;6.38;84.96;100539.23;105484;1108;77062;-63
2021/04/17 01:10:43;;;;;;;13.40;11.00;;;;;;;6.31;84.84;100543.56;105461;1107;78740;-63
2021/04/17 01:12:55;;;;;;;13.30;9.60;;;;;;;6.36;84.98;100539.41;105494;1108;78558;-60
2021/04/17 01:15:05;;;;;;;15.10;11.00;;;;;;;6.37;84.97;100546.44;105428;1108;77321;-59
2021/04/17 01:17:12;;;;;;;14.20;10.80;;;;;;;6.31;84.73;100540.89;105451;1108;78565;-67
2021/04/17 01:19:42;;;;;;;12.50;9.80;;;;;;;6.29;84.95;100543.71;105478;1108;77583;-65
2021/04/17 01:21:48;;;;;;;14.70;11.00;;;;;;;6.27;84.88;100545.72;105468;1108;78354;-66
2021/04/17 01:24:00;;;;;;;13.20;9.70;;;;;;;6.27;84.82;100547.55;105472;1108;78574;-66
2021/04/17 01:26:10;;;;;;;14.70;9.70;;;;;;;6.30;84.79;100539.19;105438;1108;77595;-66
2021/04/17 01:28:17;;;;;;;12.50;9.30;;;;;;;6.31;84.95;100544.41;105492;1108;78076;-56
2021/04/17 01:30:25;;;;;;;12.10;9.40;;;;;;;6.24;84.80;100531.77;105486;1108;78289;-57
2021/04/17 01:32:31;;;;;;;11.60;9.90;;;;;;;6.30;85.12;100544.55;105529;1108;77685;-57
2021/04/17 01:34:37;;;;;;;12.50;9.70;;;;;;;6.30;84.80;100540.03;105465;1108;77407;-58
2021/04/17 01:36:42;;;;;;;11.10;9.10;;;;;;;6.34;84.73;100546.78;105451;1108;77461;-59
2021/04/17 01:38:51;;;;;;;12.20;9.60;;;;;;;6.30;84.87;100537.36;105459;1108;78818;-59
2021/04/17 01:41:00;;;;;;;13.00;9.10;;;;;;;6.33;84.70;100538.88;105453;1108;77101;-60
2021/04/17 01:43:06;;;;;;;12.40;8.90;;;;;;;6.33;84.81;100538.88;105437;1108;77861;-59
2021/04/17 01:45:16;;;;;;;12.50;9.60;;;;;;;6.31;84.64;100539.05;105410;1108;78309;-59
2021/04/17 01:47:21;;;;;;;13.90;10.30;;;;;;;6.24;84.80;100527.25;105453;1108;78006;-59
2021/04/17 01:49:27;;;;;;;12.20;9.10;;;;;;;6.25;84.98;100538.83;105450;1108;77510;-60
2021/04/17 01:51:33;;;;;;;14.00;9.60;;;;;;;6.28;85.04;100542.05;105411;1108;77260;-59
2021/04/17 01:53:42;;;;;;;13.00;9.50;;;;;;;6.22;84.85;100531.94;105431;1108;77182;-63
2021/04/17 01:55:48;;;;;;;11.90;9.10;;;;;;;6.36;84.97;100535.88;105440;1108;78082;-63
2021/04/17 01:57:54;;;;;;;12.70;9.40;;;;;;;6.42;84.72;100536.09;105441;1108;78492;-60
2021/04/17 02:00:00;;;;;;;12.30;10.40;;;;;;;6.45;84.97;100540.30;105402;1108;77679;-60
2021/04/17 02:02:08;;;;;;;11.80;9.50;;;;;;;6.38;85.07;100531.19;105438;1108;79685;-59
2021/04/17 02:04:16;;;;;;;13.00;10.30;;;;;;;6.40;85.00;100539.95;105430;1108;79227;-59
2021/04/17 02:06:22;;;;;;;18.40;10.20;;;;;;;6.39;84.63;100539.09;104740;1110;78143;-59
2021/04/17 02:08:27;;;;;;;14.70;10.50;;;;;;;6.43;84.76;100545.81;105419;1108;78679;-59
2021/04/17 02:10:32;;;;;;;14.20;10.10;;;;;;;6.40;84.72;100534.58;104796;1110;78062;-59
2021/04/17 02:12:37;;;;;;;12.70;10.40;;;;;;;6.34;85.02;100540.58;105437;1108;76986;-63
2021/04/17 02:14:42;;;;;;;13.50;10.50;;;;;;;6.37;84.62;100543.75;105443;1108;77588;-63
2021/04/17 02:16:55;;;;;;;17.00;11.00;;;;;;;6.36;84.70;100543.92;105418;1107;76964;-63
2021/04/17 02:19:03;;;;;;;19.70;12.40;;;;;;;6.36;84.71;100544.78;105422;1108;78871;-63
2021/04/17 02:21:10;;;;;;;19.00;14.70;;;;;;;6.28;84.76;100543.88;105415;1108;78242;-63
2021/04/17 02:23:17;;;;;;;19.90;13.20;;;;;;;6.26;84.83;100544.02;105428;1108;78686;-60
2021/04/17 02:25:22;;;;;;;20.30;14.60;;;;;;;6.29;84.98;100542.89;105405;1107;78393;-59
2021/04/17 02:27:31;;;;;;;21.40;14.00;;;;;;;6.26;84.98;100538.66;104903;1103;77488;-60
2021/04/17 02:29:39;;;;;;;27.10;15.30;;;;;;;6.31;85.04;100546.25;105429;1108;77616;-60
2021/04/17 02:31:45;;;;;;;22.60;14.80;;;;;;;6.32;84.71;100542.55;105445;1108;78629;-64
2021/04/17 02:33:50;;;;;;;22.30;13.40;;;;;;;6.37;84.77;100542.94;105417;1107;78456;-63
2021/04/17 02:35:56;;;;;;;22.70;13.70;;;;;;;6.45;84.93;100543.83;105406;1108;77730;-63
2021/04/17 02:38:01;;;;;;;15.50;11.20;;;;;;;6.42;84.95;100544.15;105416;1108;78819;-60
2021/04/17 02:40:10;;;;;;;14.20;12.20;;;;;;;6.39;84.74;100540.93;105422;1108;77124;-59
2021/04/17 02:42:18;;;;;;;13.30;10.70;;;;;;;6.43;84.79;100537.76;105424;1108;78925;-64
2021/04/17 02:44:23;;;;;;;14.80;10.70;;;;;;;6.45;84.93;100538.47;105453;1108;77748;-63
2021/04/17 02:46:28;;;;;;;12.90;10.90;;;;;;;6.43;84.75;100545.81;105445;1108;79448;-63
2021/04/17 02:48:33;;;;;;;12.40;11.00;;;;;;;6.43;84.70;100535.08;105410;1108;78554;-64
2021/04/17 02:50:38;;;;;;;13.60;10.80;;;;;;;6.40;84.75;100538.08;105422;1108;78709;-63
2021/04/17 02:52:43;;;;;;;14.80;11.40;;;;;;;6.40;84.63;100535.39;105434;1108;78126;-64
2021/04/17 02:54:48;;;;;;;13.50;10.60;;;;;;;6.38;84.93;100542.77;105391;1107;77978;-64
2021/04/17 02:56:56;;;;;;;16.00;11.50;;;;;;;6.30;85.10;100542.72;105449;1108;79021;-59
2021/04/17 02:59:01;;;;;;;14.70;10.70;;;;;;;6.37;85.03;100530.34;105435;1108;77444;-59
2021/04/17 03:01:06;;;;;;;16.70;11.10;;;;;;;6.44;84.72;100541.29;105434;1107;78049;-59
2021/04/17 03:03:12;;;;;;;13.80;11.30;;;;;;;6.42;84.64;100546.83;105462;1108;79729;-60
2021/04/17 03:05:18;;;;;;;13.50;10.50;;;;;;;6.35;84.80;100544.91;104838;1110;77455;-59
2021/04/17 03:07:26;;;;;;;14.40;11.20;;;;;;;6.34;84.49;100540.58;105429;1108;78804;-59
2021/04/17 03:09:31;;;;;;;16.90;12.00;;;;;;;6.32;84.68;100548.77;105431;1108;79703;-59
2021/04/17 03:11:45;;;;;;;17.40;12.70;;;;;;;6.32;84.89;100543.39;105427;1108;76981;-59
2021/04/17 03:13:50;;;;;;;15.90;12.20;;;;;;;6.31;84.79;100539.05;105460;1108;78876;-59
2021/04/17 03:15:55;;;;;;;16.60;13.60;;;;;;;6.31;84.70;100538.20;105448;1108;77352;-59
2021/04/17 03:18:04;;;;;;;17.20;13.30;;;;;;;6.36;84.66;100541.25;105435;1108;77253;-64
2021/04/17 03:20:14;;;;;;;18.20;12.90;;;;;;;6.33;84.68;100544.24;105442;1108;78451;-64
2021/04/17 03:22:19;;;;;;;20.80;14.90;;;;;;;6.37;84.91;100534.89;105427;1108;78400;-59
2021/04/17 03:24:27;;;;;;;26.20;16.80;;;;;;;6.41;84.96;100542.45;105413;1108;78713;-60
2021/04/17 03:26:32;;;;;;;27.50;14.60;;;;;;;6.36;84.71;100547.45;105451;1108;78843;-59
2021/04/17 03:28:43;;;;;;;16.90;12.70;;;;;;;6.32;84.99;100543.39;105442;1108;78916;-60
2021/04/17 03:30:48;;;;;;;16.40;12.00;;;;;;;6.32;84.69;100543.39;105425;1107;77367;-59
2021/04/17 03:32:54;;;;;;;16.80;12.00;;;;;;;6.38;84.72;100545.45;105447;1108;77170;-60
2021/04/17 03:34:59;;;;;;;16.20;11.40;;;;;;;6.46;84.61;100542.81;105411;1108;78473;-60
2021/04/17 03:37:04;;;;;;;15.60;10.80;;;;;;;6.41;84.83;100553.19;105439;1108;78358;-60
2021/04/17 03:39:09;;;;;;;14.60;11.60;;;;;;;6.38;85.04;100548.13;105443;1108;78083;-59
2021/04/17 03:41:14;;;;;;;14.90;11.70;;;;;;;6.36;84.99;100549.30;105432;1108;78049;-59
2021/04/17 03:43:19;;;;;;;12.90;11.40;;;;;;;6.35;85.04;100548.45;105452;1102;78089;-63
2021/04/17 03:45:25;;;;;;;12.40;10.80;;;;;;;6.35;85.08;100548.45;105407;1107;78868;-63
2021/04/17 03:47:30;;;;;;;11.30;9.80;;;;;;;6.46;85.02;100544.65;105446;1108;77321;-59
2021/04/17 03:49:35;;;;;;;11.30;9.60;;;;;;;6.54;84.90;100547.38;105440;1107;76796;-59
2021/04/17 03:51:43;;;;;;;15.90;10.60;;;;;;;6.54;85.00;100553.59;105476;1107;78702;-61
2021/04/17 03:53:52;;;;;;;13.40;10.60;;;;;;;6.50;85.04;100556.76;105419;1108;77168;-64
2021/04/17 03:56:00;;;;;;;14.70;10.30;;;;;;;6.48;84.77;100566.82;104780;1110;78289;-63
2021/04/17 03:58:05;;;;;;;11.50;9.30;;;;;;;6.46;84.67;100566.96;105468;1108;78982;-58
2021/04/17 04:00:17;;;;;;;14.20;10.10;;;;;;;6.46;84.65;100564.28;105441;1108;77201;-58
2021/04/17 04:02:22;;;;;;;12.90;9.80;;;;;;;6.52;84.63;100577.06;105435;1108;76993;-58
2021/04/17 04:04:27;;;;;;;13.20;8.80;;;;;;;6.48;84.79;100567.64;105429;1108;78145;-58
2021/04/17 04:06:32;;;;;;;18.00;10.00;;;;;;;6.52;84.80;100571.70;105472;1108;77361;-58
2021/04/17 04:08:38;;;;;;;11.50;9.20;;;;;;;6.57;84.48;100573.89;105428;1108;77513;-58
2021/04/17 04:10:43;;;;;;;15.00;9.80;;;;;;;6.60;84.90;100567.36;105470;1107;78278;-59
2021/04/17 04:12:48;;;;;;;13.00;9.30;;;;;;;6.61;84.76;100572.59;104801;1110;78359;-59
2021/04/17 04:14:53;;;;;;;13.90;9.50;;;;;;;6.58;84.94;100572.91;105404;1108;76976;-59
2021/04/17 04:17:00;;;;;;;30.30;11.30;;;;;;;6.57;84.59;100565.00;105445;1108;77571;-59
2021/04/17 04:19:05;;;;;;;13.10;10.30;;;;;;;6.58;84.82;100577.42;105451;1108;77729;-58
2021/04/17 04:21:10;;;;;;;13.20;10.50;;;;;;;6.61;84.85;100569.06;105420;1103;77967;-59
2021/04/17 04:23:18;;;;;;;12.70;10.30;;;;;;;6.66;84.87;100572.09;105496;1108;77083;-63
2021/04/17 04:25:23;;;;;;;17.00;9.50;;;;;;;6.62;84.64;100576.94;105483;1100;78383;-63
2021/04/17 04:27:29;;;;;;;101.70;67.70;;;;;;;6.60;84.88;100583.47;105440;1108;78625;-63
2021/04/17 04:29:34;;;;;;;94.50;69.00;;;;;;;6.60;84.93;100580.78;105457;1103;78197;-63
2021/04/17 04:31:42;;;;;;;25.70;16.70;;;;;;;6.63;84.83;100584.00;105477;1108;77987;-59
2021/04/17 04:33:47;;;;;;;15.30;11.50;;;;;;;6.66;84.65;100572.95;105401;1108;78263;-60
2021/04/17 04:35:52;;;;;;;17.10;10.60;;;;;;;6.68;84.71;100578.14;105436;1108;77405;-59
2021/04/17 04:37:57;;;;;;;12.90;10.50;;;;;;;6.73;84.48;100578.53;105443;1108;79019;-59
2021/04/17 04:40:03;;;;;;;19.00;11.60;;;;;;;6.78;84.63;100581.57;104804;1110;77676;-58
2021/04/17 04:42:09;;;;;;;17.60;12.00;;;;;;;6.77;84.80;100585.25;105422;1108;78463;-63
2021/04/17 04:44:14;;;;;;;17.40;12.50;;;;;;;6.75;84.88;100585.42;105409;1108;77566;-63
2021/04/17 04:46:20;;;;;;;16.00;11.20;;;;;;;6.70;84.65;100587.75;105429;1107;77364;-64
2021/04/17 04:48:27;;;;;;;17.50;11.10;;;;;;;6.68;84.94;100599.61;104801;1110;78163;-58
2021/04/17 04:50:35;;;;;;;17.60;11.00;;;;;;;6.66;84.88;100599.80;105459;1108;77452;-60
2021/04/17 04:52:40;;;;;;;18.30;10.50;;;;;;;6.64;84.91;100598.27;105455;1108;77591;-64
2021/04/17 04:54:45;;;;;;;17.50;10.60;;;;;;;6.64;85.00;100591.06;105407;1107;77126;-64
2021/04/17 04:56:53;;;;;;;18.10;11.20;;;;;;;6.67;85.05;100596.12;105436;1102;77727;-63
2021/04/17 04:58:58;;;;;;;14.20;10.90;;;;;;;6.74;85.17;100598.98;105441;1108;78715;-64
2021/04/17 05:01:03;;;;;;;17.10;11.10;;;;;;;6.82;84.71;100596.34;105432;1108;78496;-63
2021/04/17 05:03:08;;;;;;;14.70;11.10;;;;;;;6.85;84.78;100601.39;105455;1108;78809;-63
2021/04/17 05:05:17;;;;;;;20.00;10.80;;;;;;;6.84;84.82;100597.05;105444;1108;77283;-63
2021/04/17 05:07:22;;;;;;;18.60;11.30;;;;;;;6.88;84.80;100601.92;105412;1107;78250;-58
2021/04/17 05:09:28;;;;;;;19.10;11.90;;;;;;;6.90;85.01;100602.59;105443;1108;78385;-58
2021/04/17 05:11:34;;;;;;;20.00;12.40;;;;;;;6.86;85.06;100605.77;105408;1108;79637;-59
2021/04/17 05:13:40;;;;;;;15.10;10.60;;;;;;;6.86;85.01;100600.41;104840;1111;77691;-64
2021/04/17 05:15:45;;;;;;;17.70;11.00;;;;;;;6.88;84.94;100603.76;105446;1108;78165;-63
2021/04/17 05:17:50;;;;;;;20.10;11.70;;;;;;;6.91;84.91;100606.98;105439;1108;78403;-63
2021/04/17 05:19:55;;;;;;;17.80;11.70;;;;;;;6.91;85.27;100608.81;105408;1108;77826;-64
2021/04/17 05:22:00;;;;;;;20.80;12.80;;;;;;;6.97;85.26;100602.80;105439;1108;77519;-64
2021/04/17 05:24:07;;;;;;;22.50;11.70;;;;;;;6.95;85.14;100610.19;105435;1108;77675;-64
2021/04/17 05:26:15;;;;;;;19.70;12.60;;;;;;;6.91;84.99;100608.81;105432;1108;78081;-62
2021/04/17 05:28:23;;;;;;;18.90;11.70;;;;;;;6.97;85.15;100603.66;105487;1108;78561;-58
2021/04/17 05:30:32;;;;;;;20.20;11.80;;;;;;;6.96;85.25;100611.85;105477;1101;76698;-58
2021/04/17 05:32:41;;;;;;;20.90;12.30;;;;;;;7.04;84.99;100609.20;105441;1108;77115;-58
2021/04/17 05:34:46;;;;;;;21.20;12.00;;;;;;;7.06;85.07;100615.25;105402;1108;77201;-58
2021/04/17 05:36:51;;;;;;;18.40;12.00;;;;;;;7.06;85.11;100612.56;105439;1107;77920;-58
2021/04/17 05:38:56;;;;;;;18.80;12.80;;;;;;;7.02;85.29;100609.38;105433;1107;76932;-58
2021/04/17 05:41:01;;;;;;;18.90;12.80;;;;;;;7.08;85.30;100613.27;105417;1108;77924;-58
2021/04/17 05:43:06;;;;;;;19.40;12.80;;;;;;;7.11;85.12;100611.07;105481;1108;78429;-58
2021/04/17 05:45:14;;;;;;;17.20;12.80;;;;;;;7.13;85.09;100613.61;105451;1108;79055;-58
2021/04/17 05:47:19;;;;;;;19.40;13.00;;;;;;;7.13;85.16;100614.45;105493;1101;78922;-63
2021/04/17 05:49:24;;;;;;;18.30;13.50;;;;;;;7.16;85.21;100612.44;105462;1107;76858;-63
2021/04/17 05:51:29;;;;;;;19.20;13.00;;;;;;;7.19;85.39;100615.66;105413;1108;78072;-63
2021/04/17 05:53:34;;;;;;;18.10;11.70;;;;;;;7.22;85.13;100612.65;105426;1108;77800;-63
2021/04/17 05:55:39;;;;;;;17.30;12.60;;;;;;;7.27;85.28;100620.21;105417;1108;78689;-63
2021/04/17 05:57:47;;;;;;;20.30;13.60;;;;;;;7.36;85.56;100620.06;105476;1108;78592;-64
2021/04/17 05:59:55;;;;;;;21.90;12.80;;;;;;;7.38;85.40;100619.91;105476;1108;78278;-63
2021/04/17 06:02:01;;;;;;;21.90;13.30;;;;;;;7.36;85.33;100620.06;105433;1108;78773;-59
2021/04/17 06:04:09;;;;;;;20.40;12.50;;;;;;;7.40;85.29;100618.74;105406;1108;79268;-60
2021/04/17 06:06:15;;;;;;;21.10;12.30;;;;;;;7.48;85.35;100620.60;105425;1108;79228;-59
2021/04/17 06:08:23;;;;;;;20.80;13.30;;;;;;;7.48;85.30;100615.23;105437;1108;78111;-58
2021/04/17 06:10:33;;;;;;;25.80;14.90;;;;;;;7.50;85.29;100622.12;105442;1108;78369;-59
2021/04/17 06:12:42;;;;;;;21.00;13.80;;;;;;;7.50;85.18;100621.27;105447;1108;78907;-64
2021/04/17 06:14:51;;;;;;;21.70;14.50;;;;;;;7.51;85.53;100626.50;104813;1111;77051;-65
2021/04/17 06:16:56;;;;;;;24.60;14.60;;;;;;;7.50;85.61;100623.96;105453;1108;78439;-64
2021/04/17 06:19:04;;;;;;;23.50;16.80;;;;;;;7.53;85.46;100620.95;105399;1108;79112;-64
2021/04/17 06:21:09;;;;;;;27.10;18.80;;;;;;;7.61;85.19;100626.34;105417;1108;77052;-64
2021/04/17 06:23:14;;;;;;;27.20;19.10;;;;;;;7.63;85.60;100625.20;105416;1108;78268;-60
2021/04/17 06:25:19;;;;;;;26.60;16.80;;;;;;;7.60;85.58;100628.22;104745;1103;78378;-59
2021/04/17 06:27:25;;;;;;;24.20;18.20;;;;;;;7.61;85.36;100627.19;104806;1111;78953;-61
2021/04/17 06:29:30;;;;;;;25.80;18.20;;;;;;;7.63;85.55;100635.95;105447;1103;77935;-59
2021/04/17 06:31:36;;;;;;;26.10;15.40;;;;;;;7.58;85.61;100638.27;104790;1103;77177;-59
2021/04/17 06:33:41;;;;;;;22.40;14.20;;;;;;;7.61;85.64;100637.09;105460;1108;78228;-59
2021/04/17 06:35:46;;;;;;;22.10;13.70;;;;;;;7.64;85.55;100636.77;105443;1102;78141;-59
2021/04/17 06:37:51;;;;;;;24.50;15.10;;;;;;;7.70;85.45;100644.19;105440;1108;79585;-64
2021/04/17 06:39:59;;;;;;;20.50;13.80;;;;;;;7.76;85.53;100645.38;105427;1107;77072;-63
2021/04/17 06:42:09;;;;;;;21.10;13.90;;;;;;;7.76;85.86;100640.84;105423;1108;77816;-64
2021/04/17 06:44:19;;;;;;;21.30;14.70;;;;;;;7.79;85.76;100643.20;105437;1108;77649;-64
2021/04/17 06:46:26;;;;;;;22.00;14.70;;;;;;;7.83;85.96;100641.84;105411;1108;78611;-64
2021/04/17 06:48:38;;;;;;;24.50;14.40;;;;;;;7.93;85.45;100639.02;105446;1108;78807;-64
2021/04/17 06:50:43;;;;;;;20.90;14.40;;;;;;;7.99;85.59;100646.43;105395;1108;78299;-64
2021/04/17 06:52:51;;;;;;;20.00;14.10;;;;;;;8.00;85.63;100645.41;105457;1108;77868;-64
2021/04/17 06:54:57;;;;;;;24.50;16.60;;;;;;;8.09;85.34;100642.56;104736;1110;78288;-63
2021/04/17 06:57:02;;;;;;;22.40;14.90;;;;;;;8.08;85.38;100643.56;105425;1107;78162;-59
2021/04/17 06:59:08;;;;;;;23.10;16.10;;;;;;;8.10;85.68;100641.54;104761;1111;78275;-59
2021/04/17 07:01:13;;;;;;;24.80;17.10;;;;;;;8.11;85.71;100645.92;104739;1110;79085;-59
2021/04/17 07:03:18;;;;;;;21.70;15.50;;;;;;;8.17;85.79;100647.95;105419;1108;76970;-63
2021/04/17 07:05:24;;;;;;;25.30;16.10;;;;;;;8.20;85.63;100650.31;105424;1108;78546;-64
2021/04/17 07:07:32;;;;;;;23.60;16.70;;;;;;;8.22;85.57;100650.97;105444;1107;79097;-64
2021/04/17 07:09:38;;;;;;;25.10;16.40;;;;;;;8.25;85.49;100649.80;104766;1109;78002;-64
2021/04/17 07:11:43;;;;;;;24.50;17.50;;;;;;;8.22;85.72;100650.97;105441;1108;77956;-64
2021/04/17 07:14:08;;;;;;;22.90;16.80;;;;;;;8.24;85.50;100654.33;105405;1108;77217;-64
2021/04/17 07:16:16;;;;;;;27.80;17.20;;;;;;;8.30;85.56;100663.61;105422;1107;78214;-64
2021/04/17 07:18:34;;;;;;;28.10;17.10;;;;;;;8.28;85.63;100653.03;105415;1108;76997;-65
2021/04/17 07:20:39;;;;;;;30.30;20.70;;;;;;;8.44;85.62;100656.71;105486;1102;78121;-64
2021/04/17 07:22:44;;;;;;;29.30;19.90;;;;;;;8.43;85.45;100663.97;105404;1108;78348;-59
2021/04/17 07:24:52;;;;;;;29.30;19.10;;;;;;;8.47;85.53;100665.30;105427;1108;79256;-60
2021/04/17 07:26:57;;;;;;;31.90;20.50;;;;;;;8.54;85.36;100665.47;105451;1107;76892;-60
2021/04/17 07:29:08;;;;;;;28.90;18.20;;;;;;;8.61;85.52;100661.08;104772;1110;79302;-59
2021/04/17 07:31:16;;;;;;;28.50;17.60;;;;;;;8.63;85.49;100656.36;104737;1111;77893;-59
2021/04/17 07:33:30;;;;;;;27.80;19.10;;;;;;;8.64;85.44;100661.59;104761;1111;77044;-59
2021/04/17 07:35:37;;;;;;;;;;;;;;;8.60;85.67;100662.92;105439;1108;77423;-59
2021/04/17 07:37:47;;;;;;;31.60;18.50;;;;;;;8.69;85.38;100667.30;105457;1108;78354;-59
2021/04/17 07:39:55;;;;;;;30.60;18.00;;;;;;;8.73;85.23;100670.50;105465;1108;78924;-59
2021/04/17 07:42:10;;;;;;;28.90;18.30;;;;;;;8.81;85.22;100668.64;105430;1108;77564;-64
2021/04/17 07:44:28;;;;;;;27.80;18.50;;;;;;;8.87;85.45;100673.31;105505;1101;78406;-64
2021/04/17 07:46:42;;;;;;;29.90;19.00;;;;;;;8.95;85.30;100667.09;105510;1101;78812;-64
2021/04/17 07:48:50;;;;;;;;;;;;;;;9.05;85.17;100672.27;104792;1111;78034;-65
2021/04/17 07:50:56;;;;;;;32.00;20.40;;;;;;;8.98;85.32;100668.59;105479;1108;78243;-65
2021/04/17 07:53:11;;;;;;;29.50;18.90;;;;;;;9.00;85.43;100677.34;105460;1108;76997;-65
2021/04/17 07:55:18;;;;;;;25.30;18.10;;;;;;;9.04;84.87;100676.81;105445;1108;77364;-66
2021/04/17 07:57:36;;;;;;;28.30;19.20;;;;;;;9.07;85.07;100675.63;105445;1108;79510;-59
2021/04/17 07:59:42;;;;;;;30.80;19.50;;;;;;;9.03;85.19;100682.39;105446;1107;78389;-59
2021/04/17 08:01:48;;;;;;;29.90;19.20;;;;;;;9.05;85.03;100680.35;105427;1108;78581;-76
2021/04/17 08:03:57;;;;;;;30.50;21.70;;;;;;;9.06;85.10;100680.20;105425;1108;78529;-66
2021/04/17 08:06:03;;;;;;;35.90;22.60;;;;;;;8.99;85.15;100678.34;105406;1108;78032;-66
2021/04/17 08:08:08;;;;;;;29.40;20.90;;;;;;;9.04;85.30;100678.69;105431;1108;78189;-62
2021/04/17 08:10:15;;;;;;;29.20;21.10;;;;;;;9.08;85.26;100678.16;105411;1108;78049;-61
2021/04/17 08:12:22;;;;;;;30.20;20.10;;;;;;;9.06;85.45;100679.35;105485;1108;77095;-60
2021/04/17 08:14:31;;;;;;;33.10;22.90;;;;;;;9.16;85.33;100680.83;105409;1108;78413;-62
2021/04/17 08:16:41;;;;;;;31.60;22.40;;;;;;;9.16;85.19;100683.53;104794;1111;77379;-59
2021/04/17 08:18:48;;;;;;;30.80;21.30;;;;;;;9.22;85.13;100681.99;105429;1108;78437;-59
2021/04/17 08:20:53;;;;;;;29.30;19.30;;;;;;;9.21;85.11;100681.14;105440;1108;78759;-60
2021/04/17 08:23:02;;;;;;;27.90;21.60;;;;;;;9.21;85.13;100680.30;105466;1107;78577;-61
2021/04/17 08:25:13;;;;;;;27.40;21.10;;;;;;;9.25;85.16;100687.04;105433;1107;77002;-62
2021/04/17 08:27:18;;;;;;;32.20;21.90;;;;;;;9.25;85.10;100682.50;105414;1107;77555;-62
2021/04/17 08:29:50;;;;;;;31.50;22.00;;;;;;;9.20;85.03;100689.42;105425;1108;78434;-61
2021/04/17 08:31:55;;;;;;;35.00;22.80;;;;;;;9.16;85.09;100688.07;104827;1111;77233;-61
2021/04/17 08:34:23;;;;;;;31.90;21.90;;;;;;;9.22;84.89;100692.77;105439;1103;78499;-61
2021/04/17 08:36:37;;;;;;;34.70;24.20;;;;;;;9.24;84.85;100694.28;105431;1108;78631;-62
2021/04/17 08:38:42;;;;;;;35.90;25.40;;;;;;;9.16;85.03;100693.46;105435;1108;78256;-59
2021/04/17 08:40:53;;;;;;;34.60;24.40;;;;;;;9.20;84.95;100689.42;105411;1108;77851;-60
2021/04/17 08:42:59;;;;;;;35.40;25.30;;;;;;;9.32;85.05;100685.31;105442;1108;77812;-59
2021/04/17 08:45:15;;;;;;;33.50;23.90;;;;;;;9.41;84.82;100695.91;105415;1108;78508;-59
2021/04/17 08:47:50;;;;;;;33.00;21.50;;;;;;;9.41;84.86;100690.52;105467;1108;78795;-63
2021/04/17 08:50:15;;;;;;;34.50;23.60;;;;;;;9.46;84.74;100695.38;104782;1110;78388;-63
2021/04/17 08:52:22;;;;;;;38.40;25.80;;;;;;;9.31;84.92;100692.56;104800;1111;79567;-59
2021/04/17 08:54:31;;;;;;;41.40;26.90;;;;;;;9.42;84.65;100700.27;104775;1110;78462;-59
2021/04/17 08:56:54;;;;;;;51.70;35.10;;;;;;;9.41;84.71;100693.22;104782;1110;77223;-59
2021/04/17 08:59:11;;;;;;;39.80;26.80;;;;;;;9.30;84.84;100693.59;104743;1110;78207;-60
2021/04/17 09:01:20;;;;;;;52.90;37.70;;;;;;;9.37;84.86;100696.41;105398;1103;77346;-58
2021/04/17 09:03:40;;;;;;;43.70;30.60;;;;;;;9.41;84.84;100697.76;105350;1108;78719;-61
2021/04/17 09:05:47;;;;;;;42.00;28.40;;;;;;;9.35;85.03;100698.45;105457;1108;78091;-58
2021/04/17 09:08:13;;;;;;;56.50;35.50;;;;;;;9.43;84.87;100688.48;105401;1108;77699;-59
2021/04/17 09:10:35;;;;;;;46.90;29.10;;;;;;;9.48;84.83;100693.34;105444;1108;77751;-60
2021/04/17 09:12:40;;;;;;;48.30;32.80;;;;;;;9.48;84.89;100696.03;105413;1108;77991;-59
2021/04/17 09:15:01;;;;;;;41.40;27.90;;;;;;;9.47;84.85;100695.22;105457;1108;78218;-62
2021/04/17 09:17:08;;;;;;;43.30;30.30;;;;;;;9.55;84.97;100691.64;105459;1107;77317;-62
2021/04/17 09:19:13;;;;;;;41.70;28.60;;;;;;;9.62;84.86;100694.45;105438;1108;78889;-64
2021/04/17 09:21:36;;;;;;;45.10;30.20;;;;;;;9.59;84.84;100705.59;105439;1108;78213;-66
2021/04/17 09:23:45;;;;;;;31.70;23.90;;;;;;;9.54;84.91;100703.43;105401;1108;77658;-62
2021/04/17 09:25:55;;;;;;;34.60;24.50;;;;;;;9.65;84.58;100697.65;105406;1108;78353;-59
2021/04/17 09:28:00;;;;;;;43.60;30.00;;;;;;;9.78;84.88;100697.91;105423;1108;78422;-59
2021/04/17 09:30:09;;;;;;;34.90;24.00;;;;;;;9.81;84.58;100699.41;105469;1108;78619;-59
2021/04/17 09:32:17;;;;;;;42.40;27.90;;;;;;;9.84;84.45;100694.51;105432;1108;78458;-59
2021/04/17 09:34:25;;;;;;;35.60;24.90;;;;;;;9.84;84.61;100699.06;105465;1102;77268;-65
2021/04/17 09:36:34;;;;;;;40.00;26.90;;;;;;;9.91;84.33;100692.80;105440;1108;78777;-65
2021/04/17 09:38:42;;;;;;;37.90;25.70;;;;;;;10.03;84.45;100704.00;105448;1108;77694;-65
2021/04/17 09:40:51;;;;;;;28.10;19.90;;;;;;;10.07;84.43;100706.19;105451;1108;77113;-66